createdAt,value
2018-03-01T00:00:01.315Z,-8.11
2018-03-01T00:01:01.315Z,-8.23
2018-03-01T00:01:46.659Z,-8.15
2018-03-01T00:02:46.677Z,-8.18
2018-03-01T00:04:46.701Z,-8.23
2018-03-01T00:05:46.690Z,-8.27
2018-03-01T00:06:46.709Z,-8.21
2018-03-01T00:07:46.708Z,-8.23
2018-03-01T00:08:46.713Z,-8.23
2018-03-01T00:09:46.728Z,-8.23
2018-03-01T00:12:46.744Z,-8.27
2018-03-01T00:13:46.757Z,-8.26
2018-03-01T00:14:46.756Z,-8.29
2018-03-01T00:15:46.775Z,-8.34
2018-03-01T00:16:46.790Z,-8.3
2018-03-01T00:17:46.791Z,-8.31
2018-03-01T00:18:46.554Z,-8.3
2018-03-01T00:20:01.505Z,-8.27
2018-03-01T00:20:46.826Z,-8.33
2018-03-01T00:22:01.479Z,-8.37
2018-03-01T00:22:46.830Z,-8.27
2018-03-01T00:23:46.832Z,-8.31
2018-03-01T00:24:46.855Z,-8.39
2018-03-01T00:25:46.869Z,-8.4
2018-03-01T00:26:46.616Z,-8.45
2018-03-01T00:27:46.860Z,-8.45
2018-03-01T00:28:46.872Z,-8.48
2018-03-01T00:29:46.615Z,-8.42
2018-03-01T00:30:46.896Z,-8.44
2018-03-01T00:31:46.638Z,-8.44
2018-03-01T00:32:46.909Z,-8.51
2018-03-01T00:33:46.908Z,-8.45
2018-03-01T00:34:46.915Z,-8.51
2018-03-01T00:37:01.598Z,-8.57
2018-03-01T00:37:46.956Z,-8.63
2018-03-01T00:38:46.694Z,-8.58
2018-03-01T00:39:46.968Z,-8.54
2018-03-01T00:41:01.633Z,-8.63
2018-03-01T00:41:46.715Z,-8.6
2018-03-01T00:42:46.981Z,-8.63
2018-03-01T00:44:01.646Z,-8.62
2018-03-01T00:44:47.004Z,-8.5
2018-03-01T00:45:47.009Z,-8.55
2018-03-01T00:46:46.758Z,-8.62
2018-03-01T00:47:47.013Z,-8.58
2018-03-01T00:48:47.042Z,-8.51
2018-03-01T00:49:46.772Z,-8.54
2018-03-01T00:50:47.044Z,-8.57
2018-03-01T00:52:01.718Z,-8.6
2018-03-01T00:52:47.063Z,-8.62
2018-03-01T00:53:46.811Z,-8.54
2018-03-01T00:54:47.071Z,-8.68
2018-03-01T00:55:47.082Z,-8.7
2018-03-01T00:56:46.835Z,-8.7
2018-03-01T00:57:47.102Z,-8.66
2018-03-01T00:58:47.117Z,-8.66
2018-03-01T00:59:47.110Z,-8.62
2018-03-01T01:00:47.128Z,-8.62
2018-03-01T01:01:47.133Z,-8.68
2018-03-01T01:03:01.793Z,-8.62
2018-03-01T01:03:47.142Z,-8.75
2018-03-01T01:04:47.156Z,-8.76
2018-03-01T01:05:46.907Z,-8.63
2018-03-01T01:07:01.826Z,-8.55
2018-03-01T01:07:47.170Z,-8.57
2018-03-01T01:08:47.183Z,-8.6
2018-03-01T01:09:47.209Z,-8.72
2018-03-01T01:10:47.205Z,-8.78
2018-03-01T01:11:47.209Z,-8.78
2018-03-01T01:12:47.213Z,-8.86
2018-03-01T01:13:46.962Z,-8.76
2018-03-01T01:14:47.234Z,-8.8
2018-03-01T01:15:47.239Z,-8.83
2018-03-01T01:16:47.260Z,-8.75
2018-03-01T01:17:47.268Z,-8.76
2018-03-01T01:18:47.277Z,-8.73
2018-03-01T01:19:47.289Z,-8.84
2018-03-01T01:20:47.306Z,-8.78
2018-03-01T01:22:47.306Z,-8.76
2018-03-01T01:23:47.304Z,-8.8
2018-03-01T01:24:47.409Z,-8.8
2018-03-01T01:25:47.338Z,-8.87
2018-03-01T01:26:47.326Z,-8.9
2018-03-01T01:27:47.352Z,-9.01
2018-03-01T01:28:47.101Z,-8.89
2018-03-01T01:29:47.365Z,-8.94
2018-03-01T01:30:47.379Z,-8.94
2018-03-01T01:31:47.383Z,-9.01
2018-03-01T01:33:47.406Z,-9.04
2018-03-01T01:37:47.418Z,-9.05
2018-03-01T01:39:01.824Z,-8.94
2018-03-01T01:39:47.438Z,-9.05
2018-03-01T01:41:47.444Z,-9.04
2018-03-01T01:42:47.464Z,-8.98
2018-03-01T01:43:47.475Z,-9.04
2018-03-01T01:44:47.470Z,-8.98
2018-03-01T01:45:47.493Z,-9.07
2018-03-01T01:46:47.489Z,-9
2018-03-01T01:47:47.504Z,-9.02
2018-03-01T01:48:47.500Z,-9.11
2018-03-01T01:49:47.518Z,-9.05
2018-03-01T01:50:47.515Z,-9.05
2018-03-01T01:52:02.193Z,-9.12
2018-03-01T01:52:47.272Z,-9.12
2018-03-01T01:55:02.202Z,-9.12
2018-03-01T01:55:47.611Z,-9.12
2018-03-01T01:56:47.586Z,-9.08
2018-03-01T01:57:47.582Z,-9.2
2018-03-01T01:58:47.580Z,-9.1
2018-03-01T01:59:47.686Z,-9.12
2018-03-01T02:00:47.599Z,-9.25
2018-03-01T02:02:02.261Z,-9.18
2018-03-01T02:02:47.609Z,-9.28
2018-03-01T02:04:02.273Z,-9.23
2018-03-01T02:04:47.676Z,-9.22
2018-03-01T02:05:47.651Z,-9.18
2018-03-01T02:06:47.650Z,-9.22
2018-03-01T02:07:47.656Z,-9.26
2018-03-01T02:08:47.656Z,-9.19
2018-03-01T02:09:47.675Z,-9.28
2018-03-01T02:11:02.340Z,-9.29
2018-03-01T02:12:02.347Z,-9.29
2018-03-01T02:12:47.690Z,-9.28
2018-03-01T02:14:02.359Z,-9.2
2018-03-01T02:14:47.713Z,-9.2
2018-03-01T02:16:47.726Z,-9.18
2018-03-01T02:17:47.737Z,-9.25
2018-03-01T02:18:47.740Z,-9.32
2018-03-01T02:19:47.492Z,-9.15
2018-03-01T02:20:47.233Z,-9.19
2018-03-01T02:21:47.788Z,-9.23
2018-03-01T02:22:47.776Z,-9.3
2018-03-01T02:23:47.774Z,-9.22
2018-03-01T02:24:47.794Z,-9.22
2018-03-01T02:25:47.794Z,-9.26
2018-03-01T02:27:02.461Z,-9.23
2018-03-01T02:27:47.809Z,-9.25
2018-03-01T02:28:47.818Z,-9.2
2018-03-01T02:29:47.827Z,-9.29
2018-03-01T02:30:47.832Z,-9.2
2018-03-01T02:31:47.581Z,-9.25
2018-03-01T02:32:47.334Z,-9.3
2018-03-01T02:33:47.615Z,-9.37
2018-03-01T02:35:47.868Z,-9.3
2018-03-01T02:36:47.888Z,-9.29
2018-03-01T02:37:47.881Z,-9.36
2018-03-01T02:38:47.632Z,-9.33
2018-03-01T02:39:47.902Z,-9.4
2018-03-01T02:40:47.912Z,-9.48
2018-03-01T02:42:02.582Z,-9.52
2018-03-01T02:43:02.590Z,-9.56
2018-03-01T02:43:47.926Z,-9.41
2018-03-01T02:44:47.936Z,-9.52
2018-03-01T02:46:02.602Z,-9.4
2018-03-01T02:46:47.961Z,-9.45
2018-03-01T02:47:47.963Z,-9.47
2018-03-01T02:48:47.965Z,-9.45
2018-03-01T02:49:47.989Z,-9.48
2018-03-01T02:50:48.001Z,-9.56
2018-03-01T02:51:47.990Z,-9.39
2018-03-01T02:52:47.992Z,-9.51
2018-03-01T02:53:48.021Z,-9.39
2018-03-01T02:54:47.760Z,-9.48
2018-03-01T02:55:47.877Z,-9.39
2018-03-01T02:56:48.036Z,-9.54
2018-03-01T02:57:48.041Z,-9.44
2018-03-01T02:58:48.059Z,-9.51
2018-03-01T02:59:47.798Z,-9.47
2018-03-01T03:00:48.068Z,-9.48
2018-03-01T03:01:48.062Z,-9.44
2018-03-01T03:02:48.082Z,-9.47
2018-03-01T03:04:02.741Z,-9.56
2018-03-01T03:04:48.081Z,-9.45
2018-03-01T03:05:48.093Z,-9.5
2018-03-01T03:06:48.111Z,-9.58
2018-03-01T03:07:47.852Z,-9.47
2018-03-01T03:08:48.119Z,-9.61
2018-03-01T03:09:48.135Z,-9.58
2018-03-01T03:10:48.142Z,-9.62
2018-03-01T03:11:48.144Z,-9.61
2018-03-01T03:12:48.168Z,-9.61
2018-03-01T03:14:48.170Z,-9.62
2018-03-01T03:15:47.915Z,-9.54
2018-03-01T03:16:48.181Z,-9.51
2018-03-01T03:17:48.204Z,-9.59
2018-03-01T03:18:48.202Z,-9.54
2018-03-01T03:19:48.222Z,-9.56
2018-03-01T03:20:48.316Z,-9.63
2018-03-01T03:21:48.227Z,-9.62
2018-03-01T03:22:47.977Z,-9.59
2018-03-01T03:23:48.238Z,-9.58
2018-03-01T03:24:48.253Z,-9.5
2018-03-01T03:25:48.265Z,-9.56
2018-03-01T03:26:48.265Z,-9.56
2018-03-01T03:27:48.272Z,-9.58
2018-03-01T03:28:48.278Z,-9.71
2018-03-01T03:30:02.685Z,-9.61
2018-03-01T03:30:48.293Z,-9.65
2018-03-01T03:31:48.296Z,-9.59
2018-03-01T03:32:48.314Z,-9.66
2018-03-01T03:33:48.323Z,-9.61
2018-03-01T03:34:48.311Z,-9.66
2018-03-01T03:36:48.329Z,-9.62
2018-03-01T03:37:48.094Z,-9.66
2018-03-01T03:38:48.359Z,-9.59
2018-03-01T03:39:48.372Z,-9.68
2018-03-01T03:40:48.359Z,-9.72
2018-03-01T03:41:48.122Z,-9.69
2018-03-01T03:42:48.123Z,-9.77
2018-03-01T03:43:48.384Z,-9.81
2018-03-01T03:44:48.389Z,-9.74
2018-03-01T03:46:02.802Z,-9.79
2018-03-01T03:46:48.408Z,-9.8
2018-03-01T03:47:48.422Z,-9.77
2018-03-01T03:48:48.428Z,-9.8
2018-03-01T03:49:48.167Z,-9.76
2018-03-01T03:50:48.474Z,-9.74
2018-03-01T03:52:48.449Z,-9.81
2018-03-01T03:54:03.119Z,-9.8
2018-03-01T03:54:48.478Z,-9.8
2018-03-01T03:55:48.486Z,-9.66
2018-03-01T03:57:02.882Z,-9.63
2018-03-01T03:57:48.490Z,-9.74
2018-03-01T03:58:48.521Z,-9.72
2018-03-01T03:59:48.512Z,-9.71
2018-03-01T04:01:03.175Z,-9.68
2018-03-01T04:02:03.193Z,-9.68
2018-03-01T04:02:48.534Z,-9.71
2018-03-01T04:03:48.286Z,-9.74
2018-03-01T04:04:48.542Z,-9.77
2018-03-01T04:05:48.555Z,-9.69
2018-03-01T04:06:48.555Z,-9.9
2018-03-01T04:07:48.420Z,-9.81
2018-03-01T04:08:48.583Z,-9.87
2018-03-01T04:09:48.330Z,-9.84
2018-03-01T04:10:48.605Z,-9.86
2018-03-01T04:11:48.605Z,-9.86
2018-03-01T04:13:03.254Z,-9.8
2018-03-01T04:14:03.309Z,-9.76
2018-03-01T04:14:48.612Z,-9.74
2018-03-01T04:15:48.627Z,-9.77
2018-03-01T04:17:03.288Z,-9.87
2018-03-01T04:17:48.377Z,-9.89
2018-03-01T04:18:48.385Z,-9.84
2018-03-01T04:19:48.394Z,-9.89
2018-03-01T04:20:48.665Z,-9.92
2018-03-01T04:21:48.669Z,-9.87
2018-03-01T04:23:48.441Z,-9.95
2018-03-01T04:24:48.709Z,-9.98
2018-03-01T04:25:48.721Z,-10.02
2018-03-01T04:27:03.361Z,-10.01
2018-03-01T04:27:48.710Z,-9.9
2018-03-01T04:28:48.735Z,-10.05
2018-03-01T04:30:48.748Z,-10.04
2018-03-01T04:31:48.750Z,-10.01
2018-03-01T04:32:48.754Z,-9.98
2018-03-01T04:33:48.779Z,-9.95
2018-03-01T04:34:48.773Z,-10.02
2018-03-01T04:35:48.773Z,-9.98
2018-03-01T04:36:48.793Z,-10.04
2018-03-01T04:38:48.818Z,-10.15
2018-03-01T04:39:48.819Z,-10.02
2018-03-01T04:41:03.471Z,-10.1
2018-03-01T04:41:48.822Z,-10.07
2018-03-01T04:42:48.843Z,-10.07
2018-03-01T04:43:48.573Z,-10.05
2018-03-01T04:44:48.852Z,-10.19
2018-03-01T04:45:48.846Z,-10.16
2018-03-01T04:46:48.614Z,-10.23
2018-03-01T04:47:48.884Z,-10.21
2018-03-01T04:49:03.539Z,-10.18
2018-03-01T04:49:48.878Z,-10.25
2018-03-01T04:51:03.548Z,-10.21
2018-03-01T04:51:48.641Z,-10.19
2018-03-01T04:52:48.919Z,-10.19
2018-03-01T04:55:03.575Z,-10.25
2018-03-01T04:56:48.942Z,-10.28
2018-03-01T04:57:48.938Z,-10.3
2018-03-01T04:58:48.695Z,-10.23
2018-03-01T05:00:48.975Z,-10.31
2018-03-01T05:01:48.985Z,-10.37
2018-03-01T05:03:48.478Z,-10.41
2018-03-01T05:06:03.667Z,-10.37
2018-03-01T05:06:48.754Z,-10.3
2018-03-01T05:08:48.762Z,-10.3
2018-03-01T05:09:48.771Z,-10.31
2018-03-01T05:10:49.044Z,-10.39
2018-03-01T05:12:03.702Z,-10.33
2018-03-01T05:12:49.062Z,-10.31
2018-03-01T05:13:49.158Z,-10.25
2018-03-01T05:14:49.063Z,-10.4
2018-03-01T05:15:49.073Z,-10.43
2018-03-01T05:16:49.077Z,-10.41
2018-03-01T05:17:49.092Z,-10.41
2018-03-01T05:18:49.101Z,-10.34
2018-03-01T05:19:49.111Z,-10.37
2018-03-01T05:21:03.780Z,-10.5
2018-03-01T05:21:49.113Z,-10.36
2018-03-01T05:22:49.134Z,-10.41
2018-03-01T05:23:49.135Z,-10.46
2018-03-01T05:24:49.145Z,-10.39
2018-03-01T05:26:03.806Z,-10.41
2018-03-01T05:26:49.270Z,-10.43
2018-03-01T05:27:49.163Z,-10.43
2018-03-01T05:28:49.175Z,-10.43
2018-03-01T05:29:48.927Z,-10.52
2018-03-01T05:30:49.201Z,-10.46
2018-03-01T05:31:49.187Z,-10.5
2018-03-01T05:33:49.225Z,-10.47
2018-03-01T05:34:49.052Z,-10.52
2018-03-01T05:35:49.229Z,-10.43
2018-03-01T05:37:03.620Z,-10.46
2018-03-01T05:37:48.982Z,-10.43
2018-03-01T05:38:49.240Z,-10.46
2018-03-01T05:39:49.246Z,-10.41
2018-03-01T05:41:03.659Z,-10.44
2018-03-01T05:41:49.270Z,-10.43
2018-03-01T05:42:49.266Z,-10.44
2018-03-01T05:43:49.282Z,-10.43
2018-03-01T05:44:49.292Z,-10.54
2018-03-01T05:45:49.034Z,-10.55
2018-03-01T05:46:49.039Z,-10.64
2018-03-01T05:48:03.959Z,-10.57
2018-03-01T05:48:49.325Z,-10.55
2018-03-01T05:49:49.326Z,-10.54
2018-03-01T05:50:49.359Z,-10.51
2018-03-01T05:52:49.157Z,-10.43
2018-03-01T05:53:49.508Z,-10.54
2018-03-01T05:55:49.112Z,-10.54
2018-03-01T05:56:49.379Z,-10.57
2018-03-01T05:57:49.393Z,-10.46
2018-03-01T05:58:48.886Z,-10.54
2018-03-01T05:59:49.405Z,-10.46
2018-03-01T06:00:49.159Z,-10.47
2018-03-01T06:01:49.155Z,-10.47
2018-03-01T06:02:49.440Z,-10.51
2018-03-01T06:03:49.436Z,-10.54
2018-03-01T06:05:49.457Z,-10.5
2018-03-01T06:06:49.460Z,-10.52
2018-03-01T06:07:49.458Z,-10.54
2018-03-01T06:08:49.478Z,-10.57
2018-03-01T06:09:49.523Z,-10.58
2018-03-01T06:10:49.474Z,-10.55
2018-03-01T06:11:49.504Z,-10.55
2018-03-01T06:12:49.492Z,-10.43
2018-03-01T06:13:49.501Z,-10.46
2018-03-01T06:14:49.514Z,-10.5
2018-03-01T06:15:49.568Z,-10.55
2018-03-01T06:16:49.632Z,-10.51
2018-03-01T06:17:49.270Z,-10.47
2018-03-01T06:18:49.550Z,-10.51
2018-03-01T06:20:49.578Z,-10.52
2018-03-01T06:21:49.554Z,-10.46
2018-03-01T06:22:49.556Z,-10.43
2018-03-01T06:25:04.243Z,-10.36
2018-03-01T06:26:04.253Z,-10.36
2018-03-01T06:26:49.615Z,-10.26
2018-03-01T06:27:49.610Z,-10.16
2018-03-01T06:28:49.627Z,-10.21
2018-03-01T06:29:49.630Z,-10.1
2018-03-01T06:30:49.642Z,-10.01
2018-03-01T06:31:49.640Z,-9.97
2018-03-01T06:32:49.658Z,-9.98
2018-03-01T06:33:49.669Z,-9.94
2018-03-01T06:34:49.669Z,-9.77
2018-03-01T06:35:49.415Z,-9.83
2018-03-01T06:36:49.443Z,-9.71
2018-03-01T06:37:49.436Z,-9.58
2018-03-01T06:38:49.715Z,-9.62
2018-03-01T06:40:04.112Z,-9.44
2018-03-01T06:40:49.731Z,-9.45
2018-03-01T06:41:49.736Z,-9.41
2018-03-01T06:42:49.743Z,-9.48
2018-03-01T06:43:49.751Z,-9.36
2018-03-01T06:45:04.524Z,-9.33
2018-03-01T06:45:49.517Z,-9.3
2018-03-01T06:46:49.783Z,-9.26
2018-03-01T06:47:49.542Z,-9.32
2018-03-01T06:48:49.820Z,-9.12
2018-03-01T06:49:49.568Z,-9
2018-03-01T06:50:49.834Z,-8.94
2018-03-01T06:52:49.872Z,-9.04
2018-03-01T06:53:49.878Z,-9.01
2018-03-01T06:55:04.555Z,-9.07
2018-03-01T06:56:04.554Z,-9.04
2018-03-01T06:56:49.918Z,-9
2018-03-01T06:57:49.924Z,-9.04
2018-03-01T06:58:49.685Z,-8.8
2018-03-01T06:59:49.952Z,-8.73
2018-03-01T07:00:49.996Z,-8.62
2018-03-01T07:02:04.640Z,-8.65
2018-03-01T07:02:50.000Z,-8.5
2018-03-01T07:03:50.015Z,-8.63
2018-03-01T07:04:50.022Z,-8.68
2018-03-01T07:07:04.705Z,-8.6
2018-03-01T07:07:50.060Z,-8.63
2018-03-01T07:08:50.085Z,-8.62
2018-03-01T07:09:49.843Z,-8.62
2018-03-01T07:10:50.118Z,-8.4
2018-03-01T07:12:04.801Z,-8.58
2018-03-01T07:12:50.156Z,-8.47
2018-03-01T07:13:50.171Z,-8.34
2018-03-01T07:14:50.163Z,-8.19
2018-03-01T07:15:49.931Z,-8.24
2018-03-01T07:16:49.943Z,-8.16
2018-03-01T07:17:50.207Z,-8.31
2018-03-01T07:18:50.231Z,-8.29
2018-03-01T07:19:50.260Z,-8.08
2018-03-01T07:20:50.257Z,-7.99
2018-03-01T07:21:50.268Z,-7.89
2018-03-01T07:22:50.284Z,-7.9
2018-03-01T07:24:04.701Z,-7.71
2018-03-01T07:24:50.319Z,-7.75
2018-03-01T07:25:50.327Z,-7.57
2018-03-01T07:27:05.030Z,-7.62
2018-03-01T07:27:50.502Z,-7.58
2018-03-01T07:28:50.380Z,-7.66
2018-03-01T07:29:50.406Z,-7.66
2018-03-01T07:30:50.160Z,-7.71
2018-03-01T07:31:50.429Z,-7.6
2018-03-01T07:32:50.435Z,-7.51
2018-03-01T07:33:50.472Z,-7.41
2018-03-01T07:34:50.474Z,-7.34
2018-03-01T07:36:05.145Z,-7.15
2018-03-01T07:36:50.498Z,-7.11
2018-03-01T07:37:50.517Z,-7.04
2018-03-01T07:38:50.550Z,-7.04
2018-03-01T07:40:50.567Z,-7.12
2018-03-01T07:41:50.569Z,-7.01
2018-03-01T07:42:50.584Z,-6.92
2018-03-01T07:43:50.612Z,-6.95
2018-03-01T07:44:50.615Z,-6.87
2018-03-01T07:45:50.651Z,-6.87
2018-03-01T07:46:50.666Z,-7.02
2018-03-01T07:47:50.420Z,-7.12
2018-03-01T07:48:50.706Z,-7.15
2018-03-01T07:49:50.705Z,-7.21
2018-03-01T07:51:50.732Z,-7.22
2018-03-01T07:52:50.740Z,-7.13
2018-03-01T07:53:50.750Z,-7.19
2018-03-01T07:54:50.775Z,-7.12
2018-03-01T07:56:05.454Z,-6.98
2018-03-01T07:56:50.793Z,-6.79
2018-03-01T07:57:50.292Z,-6.65
2018-03-01T07:59:05.481Z,-6.46
2018-03-01T07:59:50.848Z,-6.47
2018-03-01T08:00:50.849Z,-6.58
2018-03-01T08:01:50.885Z,-6.49
2018-03-01T08:02:50.874Z,-6.89
2018-03-01T08:03:50.921Z,-7.16
2018-03-01T08:05:50.914Z,-7.11
2018-03-01T08:06:50.935Z,-6.94
2018-03-01T08:07:50.972Z,-6.89
2018-03-01T08:08:50.994Z,-6.86
2018-03-01T08:10:50.990Z,-6.71
2018-03-01T08:13:05.680Z,-6.68
2018-03-01T08:13:50.761Z,-6.68
2018-03-01T08:15:05.807Z,-6.77
2018-03-01T08:15:51.061Z,-6.8
2018-03-01T08:16:50.870Z,-6.58
2018-03-01T08:17:51.072Z,-6.62
2018-03-01T08:19:05.752Z,-6.59
2018-03-01T08:19:51.111Z,-6.62
2018-03-01T08:20:51.111Z,-6.65
2018-03-01T08:22:05.785Z,-6.73
2018-03-01T08:22:50.895Z,-6.69
2018-03-01T08:23:50.904Z,-6.63
2018-03-01T08:24:51.184Z,-6.47
2018-03-01T08:26:51.196Z,-6.44
2018-03-01T08:27:51.218Z,-6.34
2018-03-01T08:28:51.235Z,-6.25
2018-03-01T08:29:51.230Z,-6.22
2018-03-01T08:31:05.642Z,-6.36
2018-03-01T08:31:51.000Z,-6.44
2018-03-01T08:32:51.270Z,-6.34
2018-03-01T08:33:51.033Z,-6.18
2018-03-01T08:35:51.319Z,-6.16
2018-03-01T08:36:51.335Z,-6.04
2018-03-01T08:37:51.336Z,-6.04
2018-03-01T08:38:51.337Z,-5.92
2018-03-01T08:39:51.356Z,-5.97
2018-03-01T08:40:51.387Z,-6.23
2018-03-01T08:41:51.389Z,-6.23
2018-03-01T08:42:51.521Z,-6.25
2018-03-01T08:43:51.404Z,-6.47
2018-03-01T08:44:51.432Z,-6.29
2018-03-01T08:45:51.171Z,-6.23
2018-03-01T08:47:06.115Z,-6.16
2018-03-01T08:48:51.535Z,-6.15
2018-03-01T08:49:51.484Z,-6.11
2018-03-01T08:50:51.508Z,-5.93
2018-03-01T08:51:51.255Z,-5.92
2018-03-01T08:52:51.527Z,-5.93
2018-03-01T08:53:51.542Z,-5.89
2018-03-01T08:54:51.279Z,-6.08
2018-03-01T08:56:06.212Z,-6.19
2018-03-01T08:56:51.574Z,-6
2018-03-01T08:57:51.332Z,-5.93
2018-03-01T08:58:51.593Z,-5.9
2018-03-01T08:59:51.355Z,-5.8
2018-03-01T09:00:51.625Z,-5.75
2018-03-01T09:02:06.028Z,-5.68
2018-03-01T09:03:06.306Z,-5.89
2018-03-01T09:03:51.397Z,-5.83
2018-03-01T09:04:51.680Z,-6.01
2018-03-01T09:05:51.678Z,-5.86
2018-03-01T09:06:51.695Z,-5.69
2018-03-01T09:08:06.362Z,-5.55
2018-03-01T09:08:51.730Z,-5.51
2018-03-01T09:10:06.384Z,-5.33
2018-03-01T09:11:51.756Z,-5.19
2018-03-01T09:12:51.771Z,-5.19
2018-03-01T09:13:51.832Z,-5.17
2018-03-01T09:14:51.527Z,-4.96
2018-03-01T09:16:06.465Z,-4.93
2018-03-01T09:16:51.562Z,-4.95
2018-03-01T09:18:51.591Z,-5.11
2018-03-01T09:19:51.586Z,-4.92
2018-03-01T09:20:51.876Z,-4.86
2018-03-01T09:21:51.872Z,-4.79
2018-03-01T09:22:51.635Z,-4.95
2018-03-01T09:24:06.576Z,-5.18
2018-03-01T09:24:51.960Z,-5.14
2018-03-01T09:25:51.928Z,-5.22
2018-03-01T09:26:51.937Z,-5.35
2018-03-01T09:27:51.946Z,-5.26
2018-03-01T09:28:51.959Z,-5.41
2018-03-01T09:29:51.983Z,-5.41
2018-03-01T09:30:51.733Z,-5.29
2018-03-01T09:31:52.036Z,-5.18
2018-03-01T09:32:52.007Z,-5.03
2018-03-01T09:34:06.687Z,-4.95
2018-03-01T09:34:52.032Z,-5
2018-03-01T09:35:52.069Z,-4.87
2018-03-01T09:36:52.070Z,-4.87
2018-03-01T09:37:51.559Z,-5.03
2018-03-01T09:38:51.829Z,-5.33
2018-03-01T09:39:52.101Z,-5.53
2018-03-01T09:40:52.129Z,-5.53
2018-03-01T09:41:52.140Z,-5.5
2018-03-01T09:42:52.146Z,-5.33
2018-03-01T09:44:51.906Z,-5.17
2018-03-01T09:46:52.194Z,-5.25
2018-03-01T09:47:52.194Z,-5.35
2018-03-01T09:49:23.776Z,-5.25
2018-03-01T09:50:06.864Z,-5.13
2018-03-01T09:50:52.210Z,-4.97
2018-03-01T09:51:52.226Z,-4.99
2018-03-01T09:52:51.978Z,-4.78
2018-03-01T09:53:52.244Z,-4.75
2018-03-01T09:54:52.254Z,-4.99
2018-03-01T09:55:52.269Z,-4.87
2018-03-01T09:56:52.282Z,-4.79
2018-03-01T09:57:52.292Z,-4.85
2018-03-01T09:58:52.309Z,-5.04
2018-03-01T09:59:52.316Z,-4.92
2018-03-01T10:00:52.332Z,-4.99
2018-03-01T10:01:52.346Z,-4.83
2018-03-01T10:02:52.460Z,-4.83
2018-03-01T10:03:52.119Z,-4.81
2018-03-01T10:04:52.383Z,-4.78
2018-03-01T10:06:07.058Z,-4.85
2018-03-01T10:06:52.407Z,-4.9
2018-03-01T10:07:52.418Z,-4.79
2018-03-01T10:08:52.428Z,-4.75
2018-03-01T10:09:52.443Z,-4.77
2018-03-01T10:10:52.455Z,-4.77
2018-03-01T10:11:52.468Z,-4.92
2018-03-01T10:13:52.492Z,-5.04
2018-03-01T10:14:52.502Z,-5.08
2018-03-01T10:15:52.515Z,-5.11
2018-03-01T10:16:52.529Z,-5.13
2018-03-01T10:17:52.538Z,-4.97
2018-03-01T10:18:52.553Z,-5.07
2018-03-01T10:19:52.574Z,-5.19
2018-03-01T10:20:52.318Z,-5.13
2018-03-01T10:22:07.255Z,-5.08
2018-03-01T10:22:52.602Z,-5.18
2018-03-01T10:23:52.356Z,-5.35
2018-03-01T10:24:52.624Z,-5.51
2018-03-01T10:25:52.386Z,-5.69
2018-03-01T10:26:52.651Z,-5.74
2018-03-01T10:27:52.403Z,-5.82
2018-03-01T10:28:52.676Z,-5.84
2018-03-01T10:29:52.725Z,-5.79
2018-03-01T10:31:07.437Z,-5.8
2018-03-01T10:31:52.451Z,-5.68
2018-03-01T10:32:52.723Z,-5.75
2018-03-01T10:33:52.476Z,-5.51
2018-03-01T10:34:52.751Z,-5.32
2018-03-01T10:35:52.759Z,-5.18
2018-03-01T10:37:07.208Z,-4.86
2018-03-01T10:37:52.778Z,-4.77
2018-03-01T10:38:52.796Z,-4.96
2018-03-01T10:39:52.801Z,-4.93
2018-03-01T10:40:52.814Z,-4.9
2018-03-01T10:41:52.573Z,-4.87
2018-03-01T10:42:52.578Z,-5.1
2018-03-01T10:43:52.849Z,-5.18
2018-03-01T10:44:52.912Z,-5.32
2018-03-01T10:45:52.870Z,-5.25
2018-03-01T10:46:52.880Z,-5.11
2018-03-01T10:47:52.891Z,-4.95
2018-03-01T10:48:52.903Z,-4.81
2018-03-01T10:49:52.924Z,-4.85
2018-03-01T10:51:52.943Z,-4.83
2018-03-01T10:52:52.692Z,-4.95
2018-03-01T10:53:52.975Z,-5.1
2018-03-01T10:54:52.712Z,-5.17
2018-03-01T10:55:52.724Z,-5.22
2018-03-01T10:56:52.989Z,-5.14
2018-03-01T10:57:52.742Z,-5.13
2018-03-01T10:58:53.017Z,-4.97
2018-03-01T10:59:53.025Z,-4.89
2018-03-01T11:00:53.029Z,-4.81
2018-03-01T11:01:53.042Z,-4.78
2018-03-01T11:02:53.107Z,-4.78
2018-03-01T11:03:52.812Z,-5.03
2018-03-01T11:05:52.571Z,-4.99
2018-03-01T11:06:52.841Z,-5.08
2018-03-01T11:08:07.776Z,-5.07
2018-03-01T11:09:07.788Z,-4.89
2018-03-01T11:09:52.869Z,-4.83
2018-03-01T11:10:52.879Z,-4.77
2018-03-01T11:11:53.143Z,-4.6
2018-03-01T11:12:53.161Z,-4.51
2018-03-01T11:13:52.913Z,-4.42
2018-03-01T11:14:52.929Z,-4.39
2018-03-01T11:15:53.184Z,-4.47
2018-03-01T11:16:53.210Z,-4.46
2018-03-01T11:17:53.209Z,-4.32
2018-03-01T11:18:53.219Z,-4.36
2018-03-01T11:19:52.975Z,-4.35
2018-03-01T11:20:53.241Z,-4.5
2018-03-01T11:21:53.258Z,-4.32
2018-03-01T11:22:53.006Z,-4.35
2018-03-01T11:23:53.272Z,-4.42
2018-03-01T11:25:07.692Z,-4.5
2018-03-01T11:27:07.968Z,-4.39
2018-03-01T11:27:53.315Z,-4.29
2018-03-01T11:28:53.328Z,-4.29
2018-03-01T11:29:53.333Z,-4.24
2018-03-01T11:30:53.344Z,-4.2
2018-03-01T11:31:53.355Z,-4.36
2018-03-01T11:32:53.367Z,-4.56
2018-03-01T11:33:53.375Z,-4.63
2018-03-01T11:34:53.469Z,-4.68
2018-03-01T11:35:53.139Z,-4.6
2018-03-01T11:36:53.404Z,-4.38
2018-03-01T11:37:53.422Z,-4.53
2018-03-01T11:39:53.441Z,-4.63
2018-03-01T11:41:08.117Z,-4.79
2018-03-01T11:42:08.124Z,-4.74
2018-03-01T11:42:53.470Z,-4.61
2018-03-01T11:43:53.482Z,-4.56
2018-03-01T11:44:53.493Z,-4.6
2018-03-01T11:45:53.506Z,-4.49
2018-03-01T11:46:53.509Z,-4.24
2018-03-01T11:47:53.524Z,-4.28
2018-03-01T11:48:53.529Z,-4.15
2018-03-01T11:49:53.543Z,-4.22
2018-03-01T11:50:53.294Z,-4.24
2018-03-01T11:51:53.617Z,-4.35
2018-03-01T11:52:53.571Z,-4.33
2018-03-01T11:53:53.583Z,-4.51
2018-03-01T11:54:53.598Z,-4.68
2018-03-01T11:55:53.606Z,-4.79
2018-03-01T11:57:08.280Z,-4.69
2018-03-01T11:57:53.628Z,-4.72
2018-03-01T11:58:53.378Z,-4.78
2018-03-01T11:59:53.391Z,-4.83
2018-03-01T12:00:53.655Z,-4.69
2018-03-01T12:01:53.672Z,-4.49
2018-03-01T12:02:53.683Z,-4.53
2018-03-01T12:03:53.686Z,-4.46
2018-03-01T12:04:53.703Z,-4.43
2018-03-01T12:05:53.707Z,-4.33
2018-03-01T12:06:53.717Z,-4.35
2018-03-01T12:07:53.728Z,-4.15
2018-03-01T12:08:53.479Z,-4.22
2018-03-01T12:09:53.748Z,-4.18
2018-03-01T12:10:53.766Z,-4.25
2018-03-01T12:12:08.433Z,-4.15
2018-03-01T12:12:53.525Z,-4.04
2018-03-01T12:14:08.455Z,-4.15
2018-03-01T12:14:53.293Z,-4.15
2018-03-01T12:15:53.814Z,-4.28
2018-03-01T12:16:53.819Z,-4.46
2018-03-01T12:17:53.830Z,-4.54
2018-03-01T12:18:53.842Z,-4.42
2018-03-01T12:19:53.594Z,-4.32
2018-03-01T12:20:53.866Z,-4.21
2018-03-01T12:21:53.868Z,-4.17
2018-03-01T12:22:53.881Z,-4.21
2018-03-01T12:23:53.892Z,-4.21
2018-03-01T12:24:53.645Z,-4.21
2018-03-01T12:25:53.656Z,-4.21
2018-03-01T12:27:08.588Z,-4.12
2018-03-01T12:27:53.936Z,-4.14
2018-03-01T12:28:53.947Z,-4.15
2018-03-01T12:29:53.956Z,-4.28
2018-03-01T12:30:53.966Z,-4.22
2018-03-01T12:31:54.082Z,-4.18
2018-03-01T12:32:53.988Z,-4.21
2018-03-01T12:33:53.995Z,-4.18
2018-03-01T12:34:54.016Z,-4.11
2018-03-01T12:35:53.503Z,-4.22
2018-03-01T12:36:54.028Z,-4.22
2018-03-01T12:37:53.778Z,-4.21
2018-03-01T12:38:53.792Z,-4.24
2018-03-01T12:39:54.062Z,-4.21
2018-03-01T12:40:54.064Z,-4.07
2018-03-01T12:41:53.820Z,-4.12
2018-03-01T12:42:54.096Z,-3.96
2018-03-01T12:44:08.506Z,-4.17
2018-03-01T12:44:53.858Z,-4.06
2018-03-01T12:45:54.120Z,-4.22
2018-03-01T12:46:53.875Z,-4.17
2018-03-01T12:47:54.136Z,-4.22
2018-03-01T12:48:54.153Z,-4.21
2018-03-01T12:49:54.168Z,-4.24
2018-03-01T12:50:54.168Z,-4.14
2018-03-01T12:51:53.929Z,-4.06
2018-03-01T12:52:54.193Z,-3.94
2018-03-01T12:53:54.200Z,-3.79
2018-03-01T12:54:54.209Z,-3.82
2018-03-01T12:55:54.222Z,-3.83
2018-03-01T12:56:53.980Z,-3.99
2018-03-01T12:57:54.287Z,-4.12
2018-03-01T12:58:54.251Z,-4.14
2018-03-01T13:00:08.673Z,-4.01
2018-03-01T13:00:54.017Z,-4.01
2018-03-01T13:01:54.031Z,-4.03
2018-03-01T13:02:54.294Z,-4.22
2018-03-01T13:03:54.303Z,-4.21
2018-03-01T13:04:54.055Z,-4.18
2018-03-01T13:05:54.325Z,-4.1
2018-03-01T13:06:54.335Z,-4.11
2018-03-01T13:07:54.349Z,-4.03
2018-03-01T13:08:54.358Z,-4.06
2018-03-01T13:09:54.361Z,-3.93
2018-03-01T13:10:54.117Z,-4.11
2018-03-01T13:11:54.384Z,-4.06
2018-03-01T13:12:54.404Z,-4.18
2018-03-01T13:13:54.406Z,-4.14
2018-03-01T13:14:54.419Z,-3.94
2018-03-01T13:16:08.833Z,-4.04
2018-03-01T13:16:54.446Z,-4.01
2018-03-01T13:17:54.193Z,-4.06
2018-03-01T13:18:54.464Z,-4.21
2018-03-01T13:19:54.471Z,-4.22
2018-03-01T13:20:54.578Z,-4.18
2018-03-01T13:21:54.487Z,-4.11
2018-03-01T13:22:54.500Z,-4.12
2018-03-01T13:23:54.508Z,-4.06
2018-03-01T13:24:54.518Z,-3.97
2018-03-01T13:25:54.526Z,-3.85
2018-03-01T13:26:54.535Z,-3.83
2018-03-01T13:27:54.547Z,-3.76
2018-03-01T13:28:54.299Z,-3.69
2018-03-01T13:29:54.577Z,-3.81
2018-03-01T13:30:54.578Z,-3.71
2018-03-01T13:32:09.254Z,-3.86
2018-03-01T13:32:54.602Z,-3.99
2018-03-01T13:33:54.608Z,-4.12
2018-03-01T13:34:54.626Z,-3.97
2018-03-01T13:35:54.629Z,-3.91
2018-03-01T13:36:54.640Z,-3.78
2018-03-01T13:37:54.652Z,-3.81
2018-03-01T13:38:54.665Z,-3.76
2018-03-01T13:39:54.675Z,-3.69
2018-03-01T13:40:54.687Z,-3.9